sensor_id;sensor_type;location;lat;lon;timestamp;P1;durP1;ratioP1;P2;durP2;ratioP2
64907;SDS011;64365;-1.756;110.040;2023-03-24T00:01:41;12.75;;;5.90;;
64907;SDS011;64365;-1.756;110.040;2023-03-24T00:04:08;12.55;;;5.97;;
64907;SDS011;64365;-1.756;110.040;2023-03-24T00:06:34;17.13;;;5.88;;
64907;SDS011;64365;-1.756;110.040;2023-03-24T00:09:01;13.70;;;6.10;;
64907;SDS011;64365;-1.756;110.040;2023-03-24T00:11:30;13.93;;;5.95;;
64907;SDS011;64365;-1.756;110.040;2023-03-24T00:13:59;14.02;;;5.55;;
64907;SDS011;64365;-1.756;110.040;2023-03-24T00:16:25;11.48;;;5.90;;
64907;SDS011;64365;-1.756;110.040;2023-03-24T00:18:52;9.32;;;5.55;;
64907;SDS011;64365;-1.756;110.040;2023-03-24T00:21:20;14.05;;;6.32;;
64907;SDS011;64365;-1.756;110.040;2023-03-24T00:23:48;9.50;;;5.60;;
64907;SDS011;64365;-1.756;110.040;2023-03-24T00:26:18;8.20;;;4.80;;
64907;SDS011;64365;-1.756;110.040;2023-03-24T00:28:47;12.55;;;5.25;;
64907;SDS011;64365;-1.756;110.040;2023-03-24T00:31:15;11.80;;;5.82;;
64907;SDS011;64365;-1.756;110.040;2023-03-24T00:33:43;12.00;;;5.45;;
64907;SDS011;64365;-1.756;110.040;2023-03-24T00:36:14;9.48;;;5.47;;
64907;SDS011;64365;-1.756;110.040;2023-03-24T00:38:42;9.50;;;5.65;;
64907;SDS011;64365;-1.756;110.040;2023-03-24T00:41:09;12.43;;;5.65;;
64907;SDS011;64365;-1.756;110.040;2023-03-24T00:43:35;10.30;;;5.50;;
64907;SDS011;64365;-1.756;110.040;2023-03-24T00:46:05;8.07;;;5.03;;
64907;SDS011;64365;-1.756;110.040;2023-03-24T00:48:35;13.65;;;6.22;;
64907;SDS011;64365;-1.756;110.040;2023-03-24T00:51:03;9.25;;;5.30;;
64907;SDS011;64365;-1.756;110.040;2023-03-24T00:53:32;10.50;;;5.72;;
64907;SDS011;64365;-1.756;110.040;2023-03-24T00:55:59;14.00;;;5.40;;
64907;SDS011;64365;-1.756;110.040;2023-03-24T00:58:26;9.88;;;6.00;;
64907;SDS011;64365;-1.756;110.040;2023-03-24T01:00:54;13.80;;;6.43;;
64907;SDS011;64365;-1.756;110.040;2023-03-24T01:03:23;9.38;;;5.95;;
64907;SDS011;64365;-1.756;110.040;2023-03-24T01:05:51;11.05;;;5.47;;
64907;SDS011;64365;-1.756;110.040;2023-03-24T01:08:21;11.95;;;6.50;;
64907;SDS011;64365;-1.756;110.040;2023-03-24T01:10:49;11.65;;;6.03;;
64907;SDS011;64365;-1.756;110.040;2023-03-24T01:13:17;12.18;;;5.75;;
64907;SDS011;64365;-1.756;110.040;2023-03-24T01:15:46;9.07;;;5.40;;
64907;SDS011;64365;-1.756;110.040;2023-03-24T01:18:13;12.52;;;5.65;;
64907;SDS011;64365;-1.756;110.040;2023-03-24T01:20:41;16.52;;;6.10;;
64907;SDS011;64365;-1.756;110.040;2023-03-24T01:23:11;14.85;;;6.63;;
64907;SDS011;64365;-1.756;110.040;2023-03-24T01:25:40;10.02;;;5.68;;
64907;SDS011;64365;-1.756;110.040;2023-03-24T01:28:09;7.30;;;5.00;;
64907;SDS011;64365;-1.756;110.040;2023-03-24T01:30:36;7.68;;;5.28;;
64907;SDS011;64365;-1.756;110.040;2023-03-24T01:33:03;14.93;;;6.63;;
64907;SDS011;64365;-1.756;110.040;2023-03-24T01:35:30;11.32;;;6.03;;
64907;SDS011;64365;-1.756;110.040;2023-03-24T01:37:59;9.80;;;5.80;;
64907;SDS011;64365;-1.756;110.040;2023-03-24T01:40:27;10.07;;;5.60;;
64907;SDS011;64365;-1.756;110.040;2023-03-24T01:42:55;10.18;;;5.25;;
64907;SDS011;64365;-1.756;110.040;2023-03-24T01:45:42;10.63;;;5.65;;
64907;SDS011;64365;-1.756;110.040;2023-03-24T01:48:15;8.95;;;4.97;;
64907;SDS011;64365;-1.756;110.040;2023-03-24T01:50:45;10.48;;;5.55;;
64907;SDS011;64365;-1.756;110.040;2023-03-24T01:53:24;10.30;;;5.95;;
64907;SDS011;64365;-1.756;110.040;2023-03-24T01:55:52;8.57;;;5.75;;
64907;SDS011;64365;-1.756;110.040;2023-03-24T01:58:20;9.75;;;5.53;;
64907;SDS011;64365;-1.756;110.040;2023-03-24T02:00:50;11.65;;;5.53;;
64907;SDS011;64365;-1.756;110.040;2023-03-24T02:03:17;11.45;;;6.40;;
64907;SDS011;64365;-1.756;110.040;2023-03-24T02:05:48;9.65;;;5.88;;
64907;SDS011;64365;-1.756;110.040;2023-03-24T02:08:19;9.80;;;6.13;;
64907;SDS011;64365;-1.756;110.040;2023-03-24T02:10:52;10.95;;;5.68;;
64907;SDS011;64365;-1.756;110.040;2023-03-24T02:13:20;8.35;;;6.00;;
64907;SDS011;64365;-1.756;110.040;2023-03-24T02:15:50;9.52;;;6.10;;
64907;SDS011;64365;-1.756;110.040;2023-03-24T02:18:26;8.07;;;5.70;;
64907;SDS011;64365;-1.756;110.040;2023-03-24T02:21:10;8.23;;;6.55;;
64907;SDS011;64365;-1.756;110.040;2023-03-24T02:23:54;8.10;;;5.65;;
64907;SDS011;64365;-1.756;110.040;2023-03-24T02:26:38;7.07;;;5.40;;
64907;SDS011;64365;-1.756;110.040;2023-03-24T02:29:21;5.70;;;4.95;;
64907;SDS011;64365;-1.756;110.040;2023-03-24T02:32:09;10.03;;;4.33;;
64907;SDS011;64365;-1.756;110.040;2023-03-24T02:34:53;6.82;;;4.47;;
64907;SDS011;64365;-1.756;110.040;2023-03-24T02:37:34;8.38;;;3.67;;
64907;SDS011;64365;-1.756;110.040;2023-03-24T02:40:31;9.05;;;3.85;;
64907;SDS011;64365;-1.756;110.040;2023-03-24T02:43:13;4.47;;;2.85;;
64907;SDS011;64365;-1.756;110.040;2023-03-24T02:45:50;5.68;;;3.45;;
64907;SDS011;64365;-1.756;110.040;2023-03-24T02:48:26;8.70;;;3.08;;
64907;SDS011;64365;-1.756;110.040;2023-03-24T02:51:00;6.22;;;2.80;;
64907;SDS011;64365;-1.756;110.040;2023-03-24T02:53:34;4.20;;;2.80;;
64907;SDS011;64365;-1.756;110.040;2023-03-24T02:56:12;5.38;;;2.92;;
64907;SDS011;64365;-1.756;110.040;2023-03-24T02:58:46;4.82;;;2.80;;
64907;SDS011;64365;-1.756;110.040;2023-03-24T03:01:18;5.13;;;3.13;;
64907;SDS011;64365;-1.756;110.040;2023-03-24T03:03:56;9.57;;;3.08;;
64907;SDS011;64365;-1.756;110.040;2023-03-24T03:06:27;6.18;;;2.75;;
64907;SDS011;64365;-1.756;110.040;2023-03-24T03:08:56;6.78;;;2.95;;
64907;SDS011;64365;-1.756;110.040;2023-03-24T03:11:27;6.80;;;2.80;;
64907;SDS011;64365;-1.756;110.040;2023-03-24T03:13:55;9.55;;;3.08;;
64907;SDS011;64365;-1.756;110.040;2023-03-24T03:16:27;9.57;;;3.13;;
64907;SDS011;64365;-1.756;110.040;2023-03-24T03:19:03;4.47;;;2.45;;
64907;SDS011;64365;-1.756;110.040;2023-03-24T03:21:35;5.93;;;2.53;;
64907;SDS011;64365;-1.756;110.040;2023-03-24T03:24:07;6.22;;;3.05;;
64907;SDS011;64365;-1.756;110.040;2023-03-24T03:26:37;9.00;;;3.00;;
64907;SDS011;64365;-1.756;110.040;2023-03-24T03:29:07;10.30;;;3.03;;
64907;SDS011;64365;-1.756;110.040;2023-03-24T03:34:09;7.00;;;3.15;;
64907;SDS011;64365;-1.756;110.040;2023-03-24T03:36:45;10.38;;;3.75;;
64907;SDS011;64365;-1.756;110.040;2023-03-24T03:39:15;7.57;;;3.40;;
64907;SDS011;64365;-1.756;110.040;2023-03-24T03:41:49;7.28;;;2.75;;
64907;SDS011;64365;-1.756;110.040;2023-03-24T03:44:16;8.52;;;3.42;;
64907;SDS011;64365;-1.756;110.040;2023-03-24T03:46:43;13.70;;;3.97;;
64907;SDS011;64365;-1.756;110.040;2023-03-24T03:49:10;11.40;;;3.55;;
64907;SDS011;64365;-1.756;110.040;2023-03-24T03:51:36;14.23;;;3.75;;
64907;SDS011;64365;-1.756;110.040;2023-03-24T03:54:04;10.68;;;3.78;;
64907;SDS011;64365;-1.756;110.040;2023-03-24T03:56:34;16.45;;;4.40;;
64907;SDS011;64365;-1.756;110.040;2023-03-24T03:59:03;10.88;;;3.97;;
64907;SDS011;64365;-1.756;110.040;2023-03-24T04:01:31;15.57;;;4.28;;
64907;SDS011;64365;-1.756;110.040;2023-03-24T04:04:09;16.02;;;4.88;;
64907;SDS011;64365;-1.756;110.040;2023-03-24T04:06:48;14.02;;;3.70;;
64907;SDS011;64365;-1.756;110.040;2023-03-24T04:09:28;11.57;;;3.58;;
64907;SDS011;64365;-1.756;110.040;2023-03-24T04:12:09;17.17;;;4.55;;
64907;SDS011;64365;-1.756;110.040;2023-03-24T04:17:59;16.60;;;3.88;;
64907;SDS011;64365;-1.756;110.040;2023-03-24T04:20:42;13.95;;;3.65;;
64907;SDS011;64365;-1.756;110.040;2023-03-24T04:23:16;14.48;;;4.28;;
64907;SDS011;64365;-1.756;110.040;2023-03-24T04:25:56;14.27;;;5.28;;
64907;SDS011;64365;-1.756;110.040;2023-03-24T04:28:32;21.33;;;5.15;;
64907;SDS011;64365;-1.756;110.040;2023-03-24T04:31:05;16.33;;;4.10;;
64907;SDS011;64365;-1.756;110.040;2023-03-24T04:33:40;12.05;;;4.63;;
64907;SDS011;64365;-1.756;110.040;2023-03-24T04:36:15;14.20;;;4.25;;
64907;SDS011;64365;-1.756;110.040;2023-03-24T04:38:51;12.40;;;3.90;;
64907;SDS011;64365;-1.756;110.040;2023-03-24T04:41:21;15.55;;;4.00;;
64907;SDS011;64365;-1.756;110.040;2023-03-24T04:43:50;12.77;;;4.40;;
64907;SDS011;64365;-1.756;110.040;2023-03-24T04:46:21;11.05;;;4.20;;
64907;SDS011;64365;-1.756;110.040;2023-03-24T04:48:48;13.38;;;4.15;;
64907;SDS011;64365;-1.756;110.040;2023-03-24T04:51:16;16.30;;;4.40;;
64907;SDS011;64365;-1.756;110.040;2023-03-24T04:53:44;15.45;;;4.38;;
64907;SDS011;64365;-1.756;110.040;2023-03-24T04:56:16;18.67;;;4.72;;
64907;SDS011;64365;-1.756;110.040;2023-03-24T04:58:54;20.27;;;4.68;;
64907;SDS011;64365;-1.756;110.040;2023-03-24T05:01:22;16.85;;;4.97;;
64907;SDS011;64365;-1.756;110.040;2023-03-24T05:03:49;12.13;;;4.55;;
64907;SDS011;64365;-1.756;110.040;2023-03-24T05:06:17;23.08;;;4.43;;
64907;SDS011;64365;-1.756;110.040;2023-03-24T05:08:43;20.35;;;4.80;;
64907;SDS011;64365;-1.756;110.040;2023-03-24T05:11:10;22.42;;;5.78;;
64907;SDS011;64365;-1.756;110.040;2023-03-24T05:13:36;21.10;;;5.03;;
64907;SDS011;64365;-1.756;110.040;2023-03-24T05:16:03;25.35;;;6.10;;
64907;SDS011;64365;-1.756;110.040;2023-03-24T05:18:32;17.95;;;5.35;;
64907;SDS011;64365;-1.756;110.040;2023-03-24T05:20:58;23.63;;;6.30;;
64907;SDS011;64365;-1.756;110.040;2023-03-24T05:23:25;23.10;;;5.00;;
64907;SDS011;64365;-1.756;110.040;2023-03-24T05:25:51;26.73;;;6.78;;
64907;SDS011;64365;-1.756;110.040;2023-03-24T05:28:18;26.38;;;5.38;;
64907;SDS011;64365;-1.756;110.040;2023-03-24T05:30:45;23.27;;;5.25;;
64907;SDS011;64365;-1.756;110.040;2023-03-24T05:33:12;20.55;;;5.75;;
64907;SDS011;64365;-1.756;110.040;2023-03-24T05:35:40;23.48;;;6.07;;
64907;SDS011;64365;-1.756;110.040;2023-03-24T05:38:06;27.05;;;6.25;;
64907;SDS011;64365;-1.756;110.040;2023-03-24T05:40:33;24.23;;;6.68;;
64907;SDS011;64365;-1.756;110.040;2023-03-24T05:43:01;21.45;;;5.55;;
64907;SDS011;64365;-1.756;110.040;2023-03-24T05:45:28;29.58;;;5.88;;
64907;SDS011;64365;-1.756;110.040;2023-03-24T05:47:54;29.38;;;7.05;;
64907;SDS011;64365;-1.756;110.040;2023-03-24T05:50:21;20.63;;;5.53;;
64907;SDS011;64365;-1.756;110.040;2023-03-24T05:52:49;27.58;;;6.63;;
64907;SDS011;64365;-1.756;110.040;2023-03-24T05:55:16;22.25;;;6.35;;
64907;SDS011;64365;-1.756;110.040;2023-03-24T05:57:43;23.88;;;6.13;;
64907;SDS011;64365;-1.756;110.040;2023-03-24T06:00:11;21.27;;;6.97;;
64907;SDS011;64365;-1.756;110.040;2023-03-24T06:02:41;26.23;;;6.50;;
64907;SDS011;64365;-1.756;110.040;2023-03-24T06:05:08;20.92;;;7.82;;
64907;SDS011;64365;-1.756;110.040;2023-03-24T06:07:35;23.05;;;5.95;;
64907;SDS011;64365;-1.756;110.040;2023-03-24T06:10:04;23.95;;;6.10;;
64907;SDS011;64365;-1.756;110.040;2023-03-24T06:12:31;24.23;;;6.32;;
64907;SDS011;64365;-1.756;110.040;2023-03-24T06:14:59;29.70;;;5.88;;
64907;SDS011;64365;-1.756;110.040;2023-03-24T06:17:27;16.27;;;5.15;;
64907;SDS011;64365;-1.756;110.040;2023-03-24T06:19:54;29.58;;;6.05;;
64907;SDS011;64365;-1.756;110.040;2023-03-24T06:22:28;17.08;;;5.45;;
64907;SDS011;64365;-1.756;110.040;2023-03-24T06:24:56;21.27;;;6.28;;
64907;SDS011;64365;-1.756;110.040;2023-03-24T06:27:25;19.90;;;6.55;;
64907;SDS011;64365;-1.756;110.040;2023-03-24T06:29:54;28.75;;;8.50;;
64907;SDS011;64365;-1.756;110.040;2023-03-24T06:32:21;18.27;;;5.40;;
64907;SDS011;64365;-1.756;110.040;2023-03-24T06:34:48;24.60;;;5.57;;
64907;SDS011;64365;-1.756;110.040;2023-03-24T06:37:15;27.13;;;6.70;;
64907;SDS011;64365;-1.756;110.040;2023-03-24T06:39:42;24.63;;;6.10;;
64907;SDS011;64365;-1.756;110.040;2023-03-24T06:42:08;17.52;;;5.88;;
64907;SDS011;64365;-1.756;110.040;2023-03-24T06:44:36;29.65;;;6.90;;
64907;SDS011;64365;-1.756;110.040;2023-03-24T06:47:03;28.13;;;5.65;;
64907;SDS011;64365;-1.756;110.040;2023-03-24T06:49:30;18.65;;;5.47;;
64907;SDS011;64365;-1.756;110.040;2023-03-24T06:51:58;24.80;;;5.60;;
64907;SDS011;64365;-1.756;110.040;2023-03-24T06:54:25;29.67;;;6.85;;
64907;SDS011;64365;-1.756;110.040;2023-03-24T06:56:52;30.40;;;6.68;;
64907;SDS011;64365;-1.756;110.040;2023-03-24T06:59:19;15.93;;;4.97;;
64907;SDS011;64365;-1.756;110.040;2023-03-24T07:01:49;22.65;;;6.47;;
64907;SDS011;64365;-1.756;110.040;2023-03-24T07:04:16;22.42;;;6.30;;
64907;SDS011;64365;-1.756;110.040;2023-03-24T07:06:42;20.83;;;5.47;;
64907;SDS011;64365;-1.756;110.040;2023-03-24T07:09:09;24.80;;;6.22;;
64907;SDS011;64365;-1.756;110.040;2023-03-24T07:11:37;24.17;;;6.95;;
64907;SDS011;64365;-1.756;110.040;2023-03-24T07:14:03;17.63;;;5.45;;
64907;SDS011;64365;-1.756;110.040;2023-03-24T07:16:31;22.95;;;5.85;;
64907;SDS011;64365;-1.756;110.040;2023-03-24T07:18:59;25.95;;;7.72;;
64907;SDS011;64365;-1.756;110.040;2023-03-24T07:21:26;27.67;;;6.25;;
64907;SDS011;64365;-1.756;110.040;2023-03-24T07:23:53;18.45;;;6.22;;
64907;SDS011;64365;-1.756;110.040;2023-03-24T07:26:20;14.98;;;5.90;;
64907;SDS011;64365;-1.756;110.040;2023-03-24T07:28:46;21.90;;;5.70;;
64907;SDS011;64365;-1.756;110.040;2023-03-24T07:31:13;17.13;;;5.43;;
64907;SDS011;64365;-1.756;110.040;2023-03-24T07:33:40;30.23;;;5.25;;
64907;SDS011;64365;-1.756;110.040;2023-03-24T07:36:08;25.23;;;7.45;;
64907;SDS011;64365;-1.756;110.040;2023-03-24T07:38:34;23.00;;;7.88;;
64907;SDS011;64365;-1.756;110.040;2023-03-24T07:41:01;25.83;;;5.35;;
64907;SDS011;64365;-1.756;110.040;2023-03-24T07:43:28;23.33;;;6.35;;
64907;SDS011;64365;-1.756;110.040;2023-03-24T07:45:54;24.77;;;5.93;;
64907;SDS011;64365;-1.756;110.040;2023-03-24T07:48:21;24.10;;;7.10;;
64907;SDS011;64365;-1.756;110.040;2023-03-24T07:50:47;25.73;;;6.88;;
64907;SDS011;64365;-1.756;110.040;2023-03-24T07:53:15;26.60;;;6.32;;
64907;SDS011;64365;-1.756;110.040;2023-03-24T07:55:44;21.88;;;6.60;;
64907;SDS011;64365;-1.756;110.040;2023-03-24T07:58:10;20.05;;;5.75;;
64907;SDS011;64365;-1.756;110.040;2023-03-24T08:00:37;20.42;;;5.80;;
64907;SDS011;64365;-1.756;110.040;2023-03-24T08:03:03;19.02;;;5.22;;
64907;SDS011;64365;-1.756;110.040;2023-03-24T08:05:33;18.58;;;5.20;;
64907;SDS011;64365;-1.756;110.040;2023-03-24T08:08:01;19.42;;;5.75;;
64907;SDS011;64365;-1.756;110.040;2023-03-24T08:10:30;20.85;;;6.18;;
64907;SDS011;64365;-1.756;110.040;2023-03-24T08:12:57;25.65;;;5.53;;
64907;SDS011;64365;-1.756;110.040;2023-03-24T08:15:24;19.88;;;6.57;;
64907;SDS011;64365;-1.756;110.040;2023-03-24T08:17:52;14.75;;;4.82;;
64907;SDS011;64365;-1.756;110.040;2023-03-24T08:20:20;16.80;;;4.70;;
64907;SDS011;64365;-1.756;110.040;2023-03-24T08:22:49;16.17;;;5.30;;
64907;SDS011;64365;-1.756;110.040;2023-03-24T08:25:18;24.08;;;5.50;;
64907;SDS011;64365;-1.756;110.040;2023-03-24T08:27:49;17.40;;;4.57;;
64907;SDS011;64365;-1.756;110.040;2023-03-24T08:30:16;25.98;;;5.25;;
64907;SDS011;64365;-1.756;110.040;2023-03-24T08:32:44;24.85;;;5.15;;
64907;SDS011;64365;-1.756;110.040;2023-03-24T08:35:11;18.00;;;5.72;;
64907;SDS011;64365;-1.756;110.040;2023-03-24T08:37:39;17.60;;;5.35;;
64907;SDS011;64365;-1.756;110.040;2023-03-24T08:40:08;20.88;;;5.18;;
64907;SDS011;64365;-1.756;110.040;2023-03-24T08:42:38;21.27;;;5.00;;
64907;SDS011;64365;-1.756;110.040;2023-03-24T08:45:07;21.88;;;5.68;;
64907;SDS011;64365;-1.756;110.040;2023-03-24T08:47:36;20.63;;;5.28;;
64907;SDS011;64365;-1.756;110.040;2023-03-24T08:50:03;17.13;;;5.97;;
64907;SDS011;64365;-1.756;110.040;2023-03-24T08:52:30;16.27;;;4.50;;
64907;SDS011;64365;-1.756;110.040;2023-03-24T08:54:57;23.58;;;5.60;;
64907;SDS011;64365;-1.756;110.040;2023-03-24T08:57:25;16.35;;;5.13;;
64907;SDS011;64365;-1.756;110.040;2023-03-24T08:59:51;18.30;;;4.82;;
64907;SDS011;64365;-1.756;110.040;2023-03-24T09:02:19;13.80;;;4.82;;
64907;SDS011;64365;-1.756;110.040;2023-03-24T09:04:46;17.48;;;5.57;;
64907;SDS011;64365;-1.756;110.040;2023-03-24T09:07:14;16.35;;;5.60;;
64907;SDS011;64365;-1.756;110.040;2023-03-24T09:09:41;15.10;;;4.70;;
64907;SDS011;64365;-1.756;110.040;2023-03-24T09:12:07;18.88;;;5.60;;
64907;SDS011;64365;-1.756;110.040;2023-03-24T09:14:34;17.10;;;4.68;;
64907;SDS011;64365;-1.756;110.040;2023-03-24T09:17:00;15.95;;;4.85;;
64907;SDS011;64365;-1.756;110.040;2023-03-24T09:19:28;20.98;;;5.43;;
64907;SDS011;64365;-1.756;110.040;2023-03-24T09:21:56;19.42;;;5.70;;
64907;SDS011;64365;-1.756;110.040;2023-03-24T09:24:22;17.50;;;4.90;;
64907;SDS011;64365;-1.756;110.040;2023-03-24T09:26:49;11.40;;;5.07;;
64907;SDS011;64365;-1.756;110.040;2023-03-24T09:29:15;14.75;;;5.03;;
64907;SDS011;64365;-1.756;110.040;2023-03-24T09:31:42;18.98;;;4.68;;
64907;SDS011;64365;-1.756;110.040;2023-03-24T09:34:09;23.38;;;5.13;;
64907;SDS011;64365;-1.756;110.040;2023-03-24T09:36:37;17.85;;;4.90;;
64907;SDS011;64365;-1.756;110.040;2023-03-24T09:39:04;25.05;;;5.13;;
64907;SDS011;64365;-1.756;110.040;2023-03-24T09:41:30;17.23;;;5.53;;
64907;SDS011;64365;-1.756;110.040;2023-03-24T09:43:58;13.32;;;4.53;;
64907;SDS011;64365;-1.756;110.040;2023-03-24T09:46:29;18.30;;;4.80;;
64907;SDS011;64365;-1.756;110.040;2023-03-24T09:48:59;22.70;;;5.85;;
64907;SDS011;64365;-1.756;110.040;2023-03-24T09:51:26;15.13;;;4.85;;
64907;SDS011;64365;-1.756;110.040;2023-03-24T09:53:58;12.57;;;4.93;;
64907;SDS011;64365;-1.756;110.040;2023-03-24T09:56:34;12.80;;;4.80;;
64907;SDS011;64365;-1.756;110.040;2023-03-24T09:59:03;11.27;;;4.85;;
64907;SDS011;64365;-1.756;110.040;2023-03-24T10:01:32;21.25;;;5.10;;
64907;SDS011;64365;-1.756;110.040;2023-03-24T10:03:59;14.18;;;4.72;;
64907;SDS011;64365;-1.756;110.040;2023-03-24T10:06:27;23.02;;;5.53;;
64907;SDS011;64365;-1.756;110.040;2023-03-24T10:09:01;15.15;;;4.32;;
64907;SDS011;64365;-1.756;110.040;2023-03-24T10:11:37;15.55;;;5.28;;
64907;SDS011;64365;-1.756;110.040;2023-03-24T10:14:14;19.75;;;5.30;;
64907;SDS011;64365;-1.756;110.040;2023-03-24T10:16:51;13.95;;;4.10;;
64907;SDS011;64365;-1.756;110.040;2023-03-24T10:19:26;18.77;;;4.97;;
64907;SDS011;64365;-1.756;110.040;2023-03-24T10:22:04;19.30;;;5.07;;
64907;SDS011;64365;-1.756;110.040;2023-03-24T10:24:39;19.08;;;4.93;;
64907;SDS011;64365;-1.756;110.040;2023-03-24T10:27:11;13.05;;;4.68;;
64907;SDS011;64365;-1.756;110.040;2023-03-24T10:29:45;16.33;;;4.50;;
64907;SDS011;64365;-1.756;110.040;2023-03-24T10:32:15;18.30;;;4.72;;
64907;SDS011;64365;-1.756;110.040;2023-03-24T10:34:48;15.32;;;4.82;;
64907;SDS011;64365;-1.756;110.040;2023-03-24T10:37:21;10.73;;;4.50;;
64907;SDS011;64365;-1.756;110.040;2023-03-24T10:39:49;18.40;;;5.95;;
64907;SDS011;64365;-1.756;110.040;2023-03-24T10:42:16;13.82;;;4.30;;
64907;SDS011;64365;-1.756;110.040;2023-03-24T10:44:45;21.27;;;4.57;;
64907;SDS011;64365;-1.756;110.040;2023-03-24T10:47:13;20.83;;;5.22;;
64907;SDS011;64365;-1.756;110.040;2023-03-24T10:49:54;15.90;;;3.83;;
64907;SDS011;64365;-1.756;110.040;2023-03-24T10:52:23;19.00;;;4.28;;
64907;SDS011;64365;-1.756;110.040;2023-03-24T10:54:55;20.13;;;5.00;;
64907;SDS011;64365;-1.756;110.040;2023-03-24T10:57:23;14.77;;;4.35;;
64907;SDS011;64365;-1.756;110.040;2023-03-24T10:59:52;14.95;;;4.13;;
64907;SDS011;64365;-1.756;110.040;2023-03-24T11:02:21;13.90;;;4.75;;
64907;SDS011;64365;-1.756;110.040;2023-03-24T11:04:52;12.77;;;4.53;;
64907;SDS011;64365;-1.756;110.040;2023-03-24T11:07:22;14.85;;;4.45;;
64907;SDS011;64365;-1.756;110.040;2023-03-24T11:09:56;16.67;;;4.10;;
64907;SDS011;64365;-1.756;110.040;2023-03-24T11:12:27;16.33;;;4.25;;
64907;SDS011;64365;-1.756;110.040;2023-03-24T11:15:00;17.48;;;4.00;;
64907;SDS011;64365;-1.756;110.040;2023-03-24T11:17:29;15.07;;;4.18;;
64907;SDS011;64365;-1.756;110.040;2023-03-24T11:19:56;18.30;;;4.72;;
64907;SDS011;64365;-1.756;110.040;2023-03-24T11:22:23;19.73;;;5.38;;
64907;SDS011;64365;-1.756;110.040;2023-03-24T11:24:52;11.27;;;3.65;;
64907;SDS011;64365;-1.756;110.040;2023-03-24T11:27:23;13.18;;;4.05;;
64907;SDS011;64365;-1.756;110.040;2023-03-24T11:29:50;17.75;;;4.22;;
64907;SDS011;64365;-1.756;110.040;2023-03-24T11:32:21;13.90;;;3.97;;
64907;SDS011;64365;-1.756;110.040;2023-03-24T11:34:55;16.40;;;4.72;;
64907;SDS011;64365;-1.756;110.040;2023-03-24T11:37:27;19.52;;;4.53;;
64907;SDS011;64365;-1.756;110.040;2023-03-24T11:40:15;12.20;;;4.05;;
64907;SDS011;64365;-1.756;110.040;2023-03-24T11:42:45;14.40;;;4.13;;
64907;SDS011;64365;-1.756;110.040;2023-03-24T11:45:21;18.02;;;5.15;;
64907;SDS011;64365;-1.756;110.040;2023-03-24T11:47:52;16.90;;;5.60;;
64907;SDS011;64365;-1.756;110.040;2023-03-24T11:50:22;13.52;;;4.60;;
64907;SDS011;64365;-1.756;110.040;2023-03-24T11:52:53;13.13;;;5.10;;
64907;SDS011;64365;-1.756;110.040;2023-03-24T11:55:24;11.80;;;3.97;;
64907;SDS011;64365;-1.756;110.040;2023-03-24T11:58:01;16.88;;;5.40;;
64907;SDS011;64365;-1.756;110.040;2023-03-24T12:00:31;13.63;;;4.65;;
64907;SDS011;64365;-1.756;110.040;2023-03-24T12:03:03;22.05;;;4.85;;
64907;SDS011;64365;-1.756;110.040;2023-03-24T12:05:45;14.00;;;4.47;;
64907;SDS011;64365;-1.756;110.040;2023-03-24T12:08:18;14.88;;;4.60;;
64907;SDS011;64365;-1.756;110.040;2023-03-24T12:10:59;13.73;;;3.85;;
64907;SDS011;64365;-1.756;110.040;2023-03-24T12:13:34;19.38;;;4.28;;
64907;SDS011;64365;-1.756;110.040;2023-03-24T12:16:09;13.95;;;4.15;;
64907;SDS011;64365;-1.756;110.040;2023-03-24T12:18:51;12.50;;;3.97;;
64907;SDS011;64365;-1.756;110.040;2023-03-24T12:21:36;9.25;;;3.42;;
64907;SDS011;64365;-1.756;110.040;2023-03-24T12:24:15;6.22;;;2.95;;
64907;SDS011;64365;-1.756;110.040;2023-03-24T12:26:53;15.00;;;3.72;;
64907;SDS011;64365;-1.756;110.040;2023-03-24T12:29:37;9.13;;;2.90;;
64907;SDS011;64365;-1.756;110.040;2023-03-24T12:35:20;8.88;;;3.45;;
64907;SDS011;64365;-1.756;110.040;2023-03-24T12:38:01;8.57;;;3.78;;
64907;SDS011;64365;-1.756;110.040;2023-03-24T12:43:41;9.93;;;3.90;;
64907;SDS011;64365;-1.756;110.040;2023-03-24T12:46:24;11.55;;;3.47;;
64907;SDS011;64365;-1.756;110.040;2023-03-24T12:49:03;11.57;;;3.80;;
64907;SDS011;64365;-1.756;110.040;2023-03-24T12:51:45;9.97;;;3.20;;
64907;SDS011;64365;-1.756;110.040;2023-03-24T12:54:20;11.55;;;3.53;;
64907;SDS011;64365;-1.756;110.040;2023-03-24T12:56:56;11.25;;;3.50;;
64907;SDS011;64365;-1.756;110.040;2023-03-24T12:59:28;11.30;;;3.45;;
64907;SDS011;64365;-1.756;110.040;2023-03-24T13:02:07;12.00;;;3.53;;
64907;SDS011;64365;-1.756;110.040;2023-03-24T13:04:42;11.05;;;3.17;;
64907;SDS011;64365;-1.756;110.040;2023-03-24T13:07:15;11.98;;;3.78;;
64907;SDS011;64365;-1.756;110.040;2023-03-24T13:09:45;16.95;;;3.80;;
64907;SDS011;64365;-1.756;110.040;2023-03-24T13:14:48;12.32;;;3.85;;
64907;SDS011;64365;-1.756;110.040;2023-03-24T13:17:19;15.27;;;4.22;;
64907;SDS011;64365;-1.756;110.040;2023-03-24T13:19:49;13.13;;;4.45;;
64907;SDS011;64365;-1.756;110.040;2023-03-24T13:22:19;19.27;;;4.30;;
64907;SDS011;64365;-1.756;110.040;2023-03-24T13:24:45;11.70;;;3.50;;
64907;SDS011;64365;-1.756;110.040;2023-03-24T13:27:14;12.77;;;3.58;;
64907;SDS011;64365;-1.756;110.040;2023-03-24T13:32:53;15.13;;;3.80;;
64907;SDS011;64365;-1.756;110.040;2023-03-24T13:35:28;9.88;;;3.53;;
64907;SDS011;64365;-1.756;110.040;2023-03-24T13:38:05;11.55;;;3.92;;
64907;SDS011;64365;-1.756;110.040;2023-03-24T13:40:39;14.50;;;3.55;;
64907;SDS011;64365;-1.756;110.040;2023-03-24T13:43:08;13.52;;;3.92;;
64907;SDS011;64365;-1.756;110.040;2023-03-24T13:45:38;13.23;;;3.47;;
64907;SDS011;64365;-1.756;110.040;2023-03-24T13:48:16;11.43;;;4.00;;
64907;SDS011;64365;-1.756;110.040;2023-03-24T13:50:53;15.55;;;3.80;;
64907;SDS011;64365;-1.756;110.040;2023-03-24T13:53:28;12.05;;;4.57;;
64907;SDS011;64365;-1.756;110.040;2023-03-24T13:55:58;12.88;;;3.97;;
64907;SDS011;64365;-1.756;110.040;2023-03-24T13:58:26;14.50;;;4.70;;
64907;SDS011;64365;-1.756;110.040;2023-03-24T14:01:14;17.17;;;5.75;;
64907;SDS011;64365;-1.756;110.040;2023-03-24T14:03:46;10.63;;;4.45;;
64907;SDS011;64365;-1.756;110.040;2023-03-24T14:06:46;11.48;;;4.32;;
64907;SDS011;64365;-1.756;110.040;2023-03-24T14:09:14;11.95;;;3.53;;
64907;SDS011;64365;-1.756;110.040;2023-03-24T14:11:43;14.07;;;4.70;;
64907;SDS011;64365;-1.756;110.040;2023-03-24T14:14:16;9.37;;;4.03;;
64907;SDS011;64365;-1.756;110.040;2023-03-24T14:16:48;4.68;;;2.65;;
64907;SDS011;64365;-1.756;110.040;2023-03-24T14:19:19;4.70;;;2.20;;
64907;SDS011;64365;-1.756;110.040;2023-03-24T14:24:37;7.97;;;2.53;;
64907;SDS011;64365;-1.756;110.040;2023-03-24T14:27:21;6.95;;;2.75;;
64907;SDS011;64365;-1.756;110.040;2023-03-24T14:29:57;9.05;;;2.63;;
64907;SDS011;64365;-1.756;110.040;2023-03-24T14:32:25;5.72;;;2.70;;
64907;SDS011;64365;-1.756;110.040;2023-03-24T14:34:55;8.02;;;2.88;;
64907;SDS011;64365;-1.756;110.040;2023-03-24T14:37:23;8.65;;;2.70;;
64907;SDS011;64365;-1.756;110.040;2023-03-24T14:39:51;10.05;;;3.90;;
64907;SDS011;64365;-1.756;110.040;2023-03-24T14:45:39;8.85;;;3.05;;
64907;SDS011;64365;-1.756;110.040;2023-03-24T14:48:33;7.93;;;2.72;;
64907;SDS011;64365;-1.756;110.040;2023-03-24T14:51:07;11.85;;;3.58;;
64907;SDS011;64365;-1.756;110.040;2023-03-24T14:53:44;14.70;;;3.42;;
64907;SDS011;64365;-1.756;110.040;2023-03-24T14:56:12;14.40;;;3.08;;